Rossendale, United Kingdom
Current Conditions -  °F | °C
As of 11:50 PM on Wednesday 28 Jan 2015 (Local Time) from EGCC Reporting Station
Broken Clouds Broken Clouds  
Wind Chill: 25°   Ceiling: 3600
Heat Index: 36°   Visibility: 6mi
Dew Point: 34°   Wind: 20mph
Humidity: 93%   Direction: 260°W
Pressure: 29.29"   Gusts: NA
Location:  53.68°N, 2.33°W
Report Text: EGCC 282350Z 26017KT 220V280 9999 FEW023 SCT030 BKN036 02/01 Q0992 NOSIG
Loading
Personal Weather Stations






























Interactive Weather Map New forecast layout! Learn more

10-Day Weather Forecast

Advertisements
Track Severe Weather on mobile